Time;durP1;ratioP1;P1;durP2;ratioP2;P2;SDS_P1;SDS_P2;PMS_P1;PMS_P2;Temp;Humidity;BMP_temperature;BMP_pressure;BME280_temperature;BME280_humidity;BME280_pressure;Samples;Min_cycle;Max_cycle;Signal;HPM_P1;HPM_P2
2022/10/21 00:01:37;;;;;;;8.45;5.15;;;9.90;99.90;;;;;;4808873;29;213428;-82
2022/10/21 00:04:03;;;;;;;6.03;5.22;;;9.90;99.90;;;;;;4799962;29;20205;-82
2022/10/21 00:06:29;;;;;;;6.57;4.93;;;9.90;99.90;;;;;;4814966;29;20186;-83
2022/10/21 00:08:55;;;;;;;10.23;5.70;;;9.90;99.90;;;;;;4825091;29;20685;-85
2022/10/21 00:11:21;;;;;;;8.77;5.30;;;9.80;99.90;;;;;;4807969;29;20702;-83
2022/10/21 00:13:47;;;;;;;7.80;5.30;;;9.90;99.90;;;;;;4809024;29;20197;-83
2022/10/21 00:16:15;;;;;;;8.68;5.20;;;9.90;99.90;;;;;;4808180;29;20653;-83
2022/10/21 00:18:42;;;;;;;6.95;5.47;;;9.90;99.90;;;;;;4825762;29;20209;-83
2022/10/21 00:21:13;;;;;;;8.45;5.30;;;9.90;99.90;;;;;;4824079;29;20194;-83
2022/10/21 00:23:39;;;;;;;8.52;5.70;;;9.90;99.90;;;;;;4803304;29;20198;-83
2022/10/21 00:26:05;;;;;;;8.65;5.35;;;9.80;99.90;;;;;;4807507;29;20186;-83
2022/10/21 00:28:32;;;;;;;10.30;5.90;;;9.80;99.90;;;;;;4810549;29;20211;-82
2022/10/21 00:30:57;;;;;;;9.45;5.78;;;9.80;99.90;;;;;;4807824;29;20681;-82
2022/10/21 00:33:24;;;;;;;10.63;5.78;;;9.80;99.90;;;;;;4808093;29;20200;-82
2022/10/21 00:35:52;;;;;;;8.98;6.30;;;9.90;99.90;;;;;;4824456;29;20190;-83
2022/10/21 00:38:18;;;;;;;9.25;6.65;;;9.80;99.90;;;;;;4808042;29;20635;-82
2022/10/21 00:40:43;;;;;;;7.55;5.22;;;9.80;99.90;;;;;;4824482;29;20273;-82
2022/10/21 00:43:11;;;;;;;10.75;5.90;;;9.90;99.90;;;;;;4808736;29;20263;-82
2022/10/21 00:45:37;;;;;;;10.13;5.97;;;9.80;99.90;;;;;;4823402;29;20196;-83
2022/10/21 00:48:20;;;;;;;10.00;6.32;;;9.80;99.90;;;;;;4824425;29;20205;-82
2022/10/21 00:51:04;;;;;;;10.98;6.13;;;9.80;99.90;;;;;;4807626;29;20300;-82
2022/10/21 00:53:32;;;;;;;11.70;5.72;;;9.90;99.90;;;;;;4824242;29;20541;-82
2022/10/21 00:56:06;;;;;;;7.30;5.20;;;9.90;99.90;;;;;;4824497;29;20198;-84
2022/10/21 00:58:36;;;;;;;6.55;5.07;;;9.80;99.90;;;;;;4823962;29;20261;-83
2022/10/21 01:01:06;;;;;;;6.85;5.30;;;9.70;99.90;;;;;;4824855;29;20215;-82
2022/10/21 01:03:34;;;;;;;9.05;5.28;;;9.60;99.90;;;;;;4824424;29;20257;-82
2022/10/21 01:06:02;;;;;;;7.88;5.75;;;9.60;99.90;;;;;;4824623;29;20304;-83
2022/10/21 01:08:28;;;;;;;7.50;5.35;;;9.60;99.90;;;;;;4822850;29;20565;-83
2022/10/21 01:10:55;;;;;;;11.05;5.30;;;9.60;99.90;;;;;;4824098;29;20229;-82
2022/10/21 01:13:24;;;;;;;6.68;5.22;;;9.70;99.90;;;;;;4824459;29;20174;-83
2022/10/21 01:16:04;;;;;;;7.05;4.97;;;9.60;99.90;;;;;;5221055;24;20200;-83
2022/10/21 01:18:35;;;;;;;9.32;5.40;;;9.60;99.90;;;;;;4790583;29;20266;-83
2022/10/21 01:21:25;;;;;;;8.63;5.15;;;9.60;99.90;;;;;;4807141;29;20194;-83
2022/10/21 01:24:15;;;;;;;6.18;5.22;;;9.60;99.90;;;;;;4808074;29;20277;-83
2022/10/21 01:27:10;;;;;;;7.10;5.68;;;9.60;99.90;;;;;;4802290;29;20530;-83
2022/10/21 01:30:01;;;;;;;12.75;6.18;;;9.60;99.90;;;;;;4807574;29;20557;-82
2022/10/21 01:32:42;;;;;;;8.70;5.43;;;9.60;99.90;;;;;;4807777;29;20709;-83
2022/10/21 01:35:23;;;;;;;7.88;5.78;;;9.60;99.90;;;;;;4807216;29;20194;-83
2022/10/21 01:38:12;;;;;;;9.15;5.57;;;9.60;99.90;;;;;;4808450;29;20242;-83
2022/10/21 01:40:47;;;;;;;10.55;6.43;;;9.50;99.90;;;;;;4808908;29;20338;-84
2022/10/21 01:43:27;;;;;;;10.70;6.38;;;9.60;99.90;;;;;;4824814;29;20704;-83
2022/10/21 01:45:59;;;;;;;10.27;6.63;;;9.60;99.90;;;;;;4808753;29;20201;-83
2022/10/21 01:48:30;;;;;;;11.88;6.93;;;9.60;99.90;;;;;;4806336;29;20192;-83
2022/10/21 01:51:00;;;;;;;7.63;6.28;;;9.60;99.90;;;;;;4815308;29;20283;-84
2022/10/21 01:53:29;;;;;;;8.35;5.72;;;9.60;99.90;;;;;;4811645;29;20201;-83
2022/10/21 01:55:57;;;;;;;9.10;5.85;;;9.60;99.90;;;;;;4808137;29;20186;-83
2022/10/21 01:58:26;;;;;;;12.10;6.30;;;9.60;99.90;;;;;;4806982;29;20649;-82
2022/10/21 02:00:54;;;;;;;11.85;6.18;;;9.60;99.90;;;;;;4808355;29;20197;-82
2022/10/21 02:03:23;;;;;;;13.20;6.03;;;9.60;99.90;;;;;;4824051;29;20194;-83
2022/10/21 02:05:49;;;;;;;6.65;5.60;;;9.60;99.90;;;;;;4824811;29;20194;-83
2022/10/21 02:08:16;;;;;;;10.02;6.57;;;9.70;99.90;;;;;;4825036;29;20201;-83
2022/10/21 02:10:49;;;;;;;8.35;6.40;;;9.60;99.90;;;;;;4815948;29;20226;-83
2022/10/21 02:13:38;;;;;;;8.52;6.43;;;9.70;99.90;;;;;;4806526;29;20627;-83
2022/10/21 02:16:07;;;;;;;10.13;6.30;;;9.70;99.90;;;;;;4770153;29;20234;-83
2022/10/21 02:18:35;;;;;;;9.25;6.00;;;9.60;99.90;;;;;;4827186;29;20282;-83
2022/10/21 02:21:08;;;;;;;17.27;6.57;;;9.60;99.90;;;;;;4828097;29;20502;-83
2022/10/21 02:23:42;;;;;;;8.93;5.95;;;9.50;99.90;;;;;;4827531;29;20246;-82
2022/10/21 02:26:08;;;;;;;10.15;5.82;;;9.50;99.90;;;;;;4811536;29;20639;-83
2022/10/21 02:28:37;;;;;;;7.85;5.82;;;9.50;99.90;;;;;;4818065;29;20200;-83
2022/10/21 02:31:18;;;;;;;9.20;5.82;;;9.50;99.90;;;;;;4811296;29;20620;-84
2022/10/21 02:34:05;;;;;;;12.65;5.93;;;9.50;99.90;;;;;;4810932;29;20668;-83
2022/10/21 02:36:55;;;;;;;9.88;5.95;;;9.50;99.90;;;;;;4827293;29;20637;-83
2022/10/21 02:39:53;;;;;;;7.72;5.20;;;9.40;99.90;;;;;;4811959;29;20225;-84
2022/10/21 02:42:25;;;;;;;10.40;5.55;;;9.30;99.90;;;;;;4810634;29;20198;-82
2022/10/21 02:44:51;;;;;;;7.43;5.40;;;9.40;99.90;;;;;;4808454;29;20187;-84
2022/10/21 02:47:17;;;;;;;11.85;6.20;;;9.30;99.90;;;;;;4807319;29;20324;-83
2022/10/21 02:49:43;;;;;;;10.07;6.40;;;9.30;99.90;;;;;;4811933;29;20663;-84
2022/10/21 02:52:09;;;;;;;9.93;6.43;;;9.30;99.90;;;;;;4826611;29;20194;-83
2022/10/21 02:54:35;;;;;;;8.35;6.03;;;9.30;99.90;;;;;;4826883;29;20245;-82
2022/10/21 02:57:01;;;;;;;8.68;5.70;;;9.30;99.90;;;;;;4810458;29;20205;-82
2022/10/21 02:59:28;;;;;;;7.78;5.85;;;9.40;99.90;;;;;;4810343;29;20197;-83
2022/10/21 03:01:53;;;;;;;9.07;5.85;;;9.40;99.90;;;;;;4827192;29;20227;-83
2022/10/21 03:04:21;;;;;;;8.00;6.25;;;9.40;99.90;;;;;;4814474;29;20258;-84
2022/10/21 03:06:47;;;;;;;10.52;6.05;;;9.40;99.90;;;;;;4807651;29;20657;-83
2022/10/21 03:09:13;;;;;;;10.63;6.35;;;9.40;99.90;;;;;;4793481;29;20218;-83
2022/10/21 03:11:38;;;;;;;9.82;6.20;;;9.40;99.90;;;;;;4820713;29;20269;-83
2022/10/21 03:14:04;;;;;;;10.93;6.50;;;9.40;99.90;;;;;;4825941;29;20189;-83
2022/10/21 03:16:30;;;;;;;11.00;6.13;;;9.40;99.90;;;;;;4826293;29;20237;-83
2022/10/21 03:18:58;;;;;;;9.65;6.50;;;9.50;99.90;;;;;;4827318;29;20269;-83
2022/10/21 03:21:23;;;;;;;9.55;5.97;;;9.50;99.90;;;;;;4809794;29;20179;-83
2022/10/21 03:23:49;;;;;;;6.80;5.40;;;9.60;99.90;;;;;;4810834;29;20247;-84
2022/10/21 03:26:15;;;;;;;9.25;6.07;;;9.50;99.90;;;;;;4825682;29;20269;-82
2022/10/21 03:28:41;;;;;;;9.82;5.90;;;9.50;99.90;;;;;;4827108;29;20190;-83
2022/10/21 03:31:06;;;;;;;7.93;5.97;;;9.60;99.90;;;;;;4810345;29;20528;-83
2022/10/21 03:33:32;;;;;;;7.03;5.60;;;9.60;99.90;;;;;;4825885;29;20585;-82
2022/10/21 03:35:58;;;;;;;9.95;6.38;;;9.50;99.90;;;;;;4812164;29;20308;-82
2022/10/21 03:38:23;;;;;;;12.48;6.30;;;9.50;99.90;;;;;;4826582;29;20220;-83
2022/10/21 03:40:52;;;;;;;9.55;5.95;;;9.50;99.90;;;;;;4825784;29;20273;-83
2022/10/21 03:43:17;;;;;;;8.75;6.35;;;9.40;99.90;;;;;;4810653;29;20575;-83
2022/10/21 03:45:43;;;;;;;9.40;5.93;;;9.40;99.90;;;;;;4808003;29;20217;-83
2022/10/21 03:48:09;;;;;;;8.05;6.13;;;9.40;99.90;;;;;;4810437;29;20246;-83
2022/10/21 03:50:36;;;;;;;8.65;5.57;;;9.40;99.90;;;;;;4809729;29;20253;-83
2022/10/21 03:53:01;;;;;;;11.80;6.15;;;9.40;99.90;;;;;;4810101;29;20190;-83
2022/10/21 03:55:27;;;;;;;8.40;6.25;;;9.40;99.90;;;;;;4809725;29;20233;-82
2022/10/21 03:57:53;;;;;;;11.48;6.30;;;9.40;99.90;;;;;;4809391;29;20186;-83
2022/10/21 04:00:19;;;;;;;11.23;6.60;;;9.40;99.90;;;;;;4810209;29;20217;-82
2022/10/21 04:02:45;;;;;;;9.15;6.50;;;9.40;99.90;;;;;;4804602;29;20682;-81
2022/10/21 04:05:11;;;;;;;7.82;6.10;;;9.40;99.90;;;;;;4802978;29;20210;-82
2022/10/21 04:07:37;;;;;;;8.43;6.68;;;9.40;99.90;;;;;;4809053;29;20216;-83
2022/10/21 04:10:05;;;;;;;12.35;6.05;;;9.40;99.90;;;;;;4810198;29;20658;-84
2022/10/21 04:12:31;;;;;;;10.07;6.40;;;9.40;99.90;;;;;;4825332;29;20194;-83
2022/10/21 04:14:56;;;;;;;11.68;5.63;;;9.40;99.90;;;;;;4809242;29;20533;-84
2022/10/21 04:17:22;;;;;;;12.63;6.65;;;9.40;99.90;;;;;;4825129;29;20316;-84
2022/10/21 04:19:49;;;;;;;8.82;5.55;;;9.40;99.90;;;;;;4810459;29;20683;-83
2022/10/21 04:22:15;;;;;;;10.80;6.18;;;9.40;99.90;;;;;;4809031;29;20506;-84
2022/10/21 04:24:40;;;;;;;11.07;6.40;;;9.40;99.90;;;;;;4826595;29;20190;-83
2022/10/21 04:27:06;;;;;;;8.30;6.15;;;9.50;99.90;;;;;;4794167;29;20909;-83
2022/10/21 04:29:33;;;;;;;15.77;6.15;;;9.50;99.90;;;;;;4791141;29;20225;-82
2022/10/21 04:31:59;;;;;;;9.18;6.22;;;9.50;99.90;;;;;;4821647;29;20530;-83
2022/10/21 04:34:27;;;;;;;9.18;5.90;;;9.50;99.90;;;;;;4826182;29;20186;-83
2022/10/21 04:36:53;;;;;;;10.18;5.88;;;9.50;99.90;;;;;;4809305;29;20197;-83
2022/10/21 04:39:19;;;;;;;14.40;6.05;;;9.50;99.90;;;;;;4809913;29;20190;-83
2022/10/21 04:41:44;;;;;;;9.85;5.75;;;9.50;99.90;;;;;;4824651;29;20705;-83
2022/10/21 04:44:10;;;;;;;7.97;5.90;;;9.50;99.90;;;;;;4825517;29;20174;-83
2022/10/21 04:46:36;;;;;;;7.82;5.78;;;9.50;99.90;;;;;;4824614;29;20186;-84
2022/10/21 04:49:02;;;;;;;10.90;5.93;;;9.50;99.90;;;;;;4808905;29;20202;-83
2022/10/21 04:51:27;;;;;;;10.30;6.47;;;9.50;99.90;;;;;;4801021;29;20313;-83
2022/10/21 04:53:53;;;;;;;9.10;6.18;;;9.60;99.90;;;;;;4791691;29;20282;-84
2022/10/21 04:56:24;;;;;;;12.07;6.93;;;9.60;99.90;;;;;;4815078;29;20194;-93
2022/10/21 04:58:50;;;;;;;8.45;6.05;;;9.70;99.90;;;;;;4811095;29;20249;-93
2022/10/21 05:01:22;;;;;;;12.13;6.63;;;9.70;99.90;;;;;;4807291;29;20633;-92
2022/10/21 05:03:47;;;;;;;14.25;6.95;;;9.80;99.90;;;;;;4810267;29;20629;-91
2022/10/21 05:06:13;;;;;;;8.75;6.15;;;9.80;99.90;;;;;;4809098;29;20197;-93
2022/10/21 05:08:38;;;;;;;12.30;6.22;;;9.80;99.90;;;;;;4810179;29;20190;-89
2022/10/21 05:11:05;;;;;;;11.15;6.63;;;9.80;99.90;;;;;;4808747;29;20649;-89
2022/10/21 05:13:32;;;;;;;12.32;6.70;;;9.80;99.90;;;;;;4809375;29;20709;-89
2022/10/21 05:16:02;;;;;;;8.98;5.88;;;9.90;99.90;;;;;;4809906;29;20688;-91
2022/10/21 05:18:29;;;;;;;8.48;6.63;;;9.90;99.90;;;;;;4809587;29;20629;-92
2022/10/21 05:20:56;;;;;;;9.55;6.50;;;10.00;99.90;;;;;;4822261;29;20205;-90
2022/10/21 05:23:23;;;;;;;10.70;6.40;;;9.90;99.90;;;;;;4809907;29;20197;-89
2022/10/21 05:25:51;;;;;;;11.23;6.72;;;10.00;99.90;;;;;;4805742;29;20509;-92
2022/10/21 05:28:18;;;;;;;11.63;6.22;;;10.00;99.90;;;;;;4809914;29;20277;-90
2022/10/21 05:30:51;;;;;;;10.23;7.10;;;10.00;99.90;;;;;;4809077;29;20673;-90
2022/10/21 05:33:17;;;;;;;8.68;6.43;;;10.00;99.90;;;;;;4809095;29;20199;-91
2022/10/21 05:35:43;;;;;;;8.70;6.63;;;10.00;99.90;;;;;;4806567;29;20273;-90
2022/10/21 05:38:09;;;;;;;9.63;6.82;;;10.00;99.90;;;;;;4817153;29;20186;-89
2022/10/21 05:40:36;;;;;;;9.57;7.15;;;10.00;99.90;;;;;;4809008;29;20722;-90
2022/10/21 05:43:01;;;;;;;13.73;7.00;;;10.00;99.90;;;;;;4808670;29;20190;-89
2022/10/21 05:45:27;;;;;;;13.38;6.65;;;10.00;99.90;;;;;;4812398;29;20516;-90
2022/10/21 05:47:53;;;;;;;8.95;6.50;;;10.00;99.90;;;;;;4813494;29;20181;-90
2022/10/21 05:50:18;;;;;;;12.63;6.30;;;10.00;99.90;;;;;;4813482;29;20217;-90
2022/10/21 05:52:47;;;;;;;11.30;5.82;;;10.00;99.90;;;;;;4811989;29;20200;-89
2022/10/21 05:55:13;;;;;;;9.90;6.53;;;10.00;99.90;;;;;;4795377;29;20266;-89
2022/10/21 05:57:39;;;;;;;12.75;7.00;;;10.00;99.90;;;;;;4810696;29;20281;-90
2022/10/21 06:00:05;;;;;;;8.40;6.50;;;10.00;99.90;;;;;;4812969;29;20194;-89
2022/10/21 06:02:31;;;;;;;14.18;6.80;;;10.00;99.90;;;;;;4808934;29;20198;-89
2022/10/21 06:04:57;;;;;;;10.23;6.25;;;10.00;99.90;;;;;;4817343;29;20196;-89
2022/10/21 06:07:22;;;;;;;10.68;6.13;;;10.00;99.90;;;;;;4831501;29;20265;-90
2022/10/21 06:09:48;;;;;;;8.35;5.93;;;10.00;99.90;;;;;;4825224;29;20675;-90
2022/10/21 06:12:20;;;;;;;10.68;6.30;;;10.00;99.90;;;;;;4818896;29;20245;-89
2022/10/21 06:14:46;;;;;;;9.43;6.28;;;10.00;99.90;;;;;;4811819;29;20197;-89
2022/10/21 06:17:11;;;;;;;8.45;6.22;;;10.00;99.90;;;;;;4812998;29;20229;-89
2022/10/21 06:19:37;;;;;;;7.32;6.00;;;10.00;99.90;;;;;;4812325;29;20242;-89
2022/10/21 06:22:05;;;;;;;5.68;4.95;;;10.00;99.90;;;;;;4820759;29;20204;-88
2022/10/21 06:24:31;;;;;;;6.40;5.20;;;10.00;99.90;;;;;;4812200;29;20252;-89
2022/10/21 06:26:57;;;;;;;8.57;6.05;;;10.00;99.90;;;;;;4811517;29;20222;-89
2022/10/21 06:29:23;;;;;;;11.55;5.68;;;10.00;99.90;;;;;;4812659;29;20244;-89
2022/10/21 06:31:53;;;;;;;10.30;6.20;;;10.00;99.90;;;;;;4812480;29;20297;-89
2022/10/21 06:34:19;;;;;;;10.10;5.78;;;10.00;99.90;;;;;;4811978;29;20189;-89
2022/10/21 06:36:45;;;;;;;8.68;6.05;;;10.00;99.90;;;;;;4826833;29;20186;-90
2022/10/21 06:39:11;;;;;;;12.50;6.53;;;10.00;99.90;;;;;;4811649;29;20253;-89
2022/10/21 06:41:37;;;;;;;8.95;6.70;;;10.00;99.90;;;;;;4811789;29;20622;-89
2022/10/21 06:44:03;;;;;;;8.80;6.45;;;10.10;99.90;;;;;;4827005;29;20215;-89
2022/10/21 06:46:29;;;;;;;8.35;5.40;;;10.10;99.90;;;;;;4811855;29;20190;-89
2022/10/21 06:48:56;;;;;;;9.32;5.90;;;10.10;99.90;;;;;;4816996;29;20250;-89
2022/10/21 06:51:24;;;;;;;11.75;5.88;;;10.10;99.90;;;;;;4821854;29;20201;-90
2022/10/21 06:53:55;;;;;;;8.93;5.90;;;10.10;99.90;;;;;;4827309;29;20179;-88
2022/10/21 06:56:21;;;;;;;14.70;5.78;;;10.20;99.90;;;;;;4827581;29;20197;-89
2022/10/21 06:58:48;;;;;;;8.57;5.60;;;10.20;99.90;;;;;;4811910;29;20190;-90
2022/10/21 07:01:27;;;;;;;7.22;5.80;;;10.20;99.90;;;;;;4808430;29;20243;-90
2022/10/21 07:03:53;;;;;;;10.88;6.28;;;10.20;99.90;;;;;;4811175;29;20225;-90
2022/10/21 07:06:18;;;;;;;10.75;7.15;;;10.30;99.90;;;;;;4811871;29;20625;-90
2022/10/21 07:08:45;;;;;;;11.27;7.18;;;10.40;99.90;;;;;;4826803;29;20200;-91
2022/10/21 07:11:13;;;;;;;9.20;6.15;;;10.40;99.90;;;;;;4828485;29;20222;-95
2022/10/21 07:13:39;;;;;;;9.38;6.55;;;10.50;99.90;;;;;;4822100;29;20212;-94
2022/10/21 07:16:10;;;;;;;8.85;7.05;;;10.50;99.90;;;;;;4829607;29;20236;-93
2022/10/21 07:18:36;;;;;;;8.98;5.82;;;10.50;99.90;;;;;;4834899;29;20186;-94
2022/10/21 07:21:06;;;;;;;10.48;6.18;;;10.60;99.90;;;;;;4840829;29;20200;-93
2022/10/21 07:23:32;;;;;;;7.90;5.95;;;10.60;99.90;;;;;;4839068;29;20664;-94
2022/10/21 07:26:01;;;;;;;9.88;6.80;;;10.70;99.90;;;;;;4809172;29;20527;-93
2022/10/21 07:28:26;;;;;;;11.27;7.00;;;10.70;99.90;;;;;;4808521;29;20199;-92
2022/10/21 07:30:52;;;;;;;10.38;6.68;;;10.80;99.90;;;;;;4792767;29;20222;-92
2022/10/21 07:33:21;;;;;;;15.68;7.18;;;10.90;99.90;;;;;;4819815;29;20190;-92
2022/10/21 07:35:47;;;;;;;8.27;6.40;;;11.00;99.90;;;;;;4822040;29;20189;-91
2022/10/21 07:38:12;;;;;;;9.95;7.40;;;11.10;99.90;;;;;;4817074;29;20197;-92
2022/10/21 07:40:40;;;;;;;10.38;7.78;;;11.10;99.90;;;;;;4819057;29;20217;-94
2022/10/21 07:43:08;;;;;;;12.07;6.63;;;11.20;99.90;;;;;;4830133;29;20232;-95
2022/10/21 07:45:37;;;;;;;10.95;7.32;;;11.20;99.90;;;;;;4819619;29;20190;-92
2022/10/21 07:48:03;;;;;;;9.43;7.00;;;11.30;99.90;;;;;;4825912;29;20198;-93
2022/10/21 07:50:29;;;;;;;22.70;7.93;;;11.40;99.90;;;;;;4809482;29;20266;-93
2022/10/21 07:52:54;;;;;;;10.82;7.50;;;11.50;99.90;;;;;;4828343;29;20190;-94
2022/10/21 07:55:20;;;;;;;15.45;7.95;;;11.50;99.90;;;;;;4811392;29;20345;-94
2022/10/21 07:57:45;;;;;;;9.40;7.18;;;11.50;99.90;;;;;;4822465;29;20181;-93
2022/10/21 08:00:12;;;;;;;10.55;7.10;;;11.50;99.90;;;;;;4828113;29;20201;-94
2022/10/21 08:02:37;;;;;;;11.93;7.53;;;11.60;99.90;;;;;;4805755;29;20230;-94
2022/10/21 08:05:05;;;;;;;11.82;7.28;;;11.70;99.90;;;;;;4828605;29;20177;-93
2022/10/21 08:07:31;;;;;;;11.30;7.82;;;11.70;99.90;;;;;;4820234;29;20280;-94
2022/10/21 08:09:58;;;;;;;13.75;8.48;;;11.80;99.90;;;;;;4810587;29;20241;-93
2022/10/21 08:12:23;;;;;;;10.13;7.07;;;11.90;99.90;;;;;;4808152;29;20194;-93
2022/10/21 08:14:50;;;;;;;14.68;8.02;;;12.00;99.90;;;;;;4792820;29;20235;-92
2022/10/21 08:17:16;;;;;;;14.18;8.60;;;12.10;99.90;;;;;;4815179;29;20333;-92
2022/10/21 08:19:41;;;;;;;12.23;8.25;;;12.20;99.90;;;;;;4827292;29;20205;-92
2022/10/21 08:22:12;;;;;;;16.10;8.50;;;12.30;99.90;;;;;;4809472;29;20281;-93
2022/10/21 08:24:38;;;;;;;13.27;7.72;;;12.60;99.90;;;;;;4811061;29;20630;-93
2022/10/21 08:27:04;;;;;;;10.95;8.63;;;12.70;99.90;;;;;;4809846;29;20197;-90
2022/10/21 08:29:30;;;;;;;15.23;9.25;;;12.90;99.90;;;;;;4810776;29;20206;-89
2022/10/21 08:32:00;;;;;;;13.82;9.38;;;13.20;99.90;;;;;;4825753;29;20201;-88
2022/10/21 08:34:26;;;;;;;14.60;8.35;;;13.40;99.90;;;;;;4812250;29;20201;-88
2022/10/21 08:36:51;;;;;;;13.60;7.90;;;13.60;99.90;;;;;;4825279;29;20193;-92
2022/10/21 08:39:17;;;;;;;11.18;7.70;;;13.80;99.90;;;;;;4829927;29;20633;-91
2022/10/21 08:42:05;;;;;;;11.38;7.95;;;14.00;99.90;;;;;;4826128;29;20628;-91
2022/10/21 08:44:57;;;;;;;14.80;7.68;;;14.10;99.90;;;;;;4810391;29;20273;-91
2022/10/21 08:47:44;;;;;;;11.73;7.13;;;14.30;99.90;;;;;;4824200;29;20264;-91
2022/10/21 08:50:18;;;;;;;8.27;6.28;;;14.40;99.90;;;;;;4809646;29;20221;-89
2022/10/21 08:52:53;;;;;;;7.50;5.78;;;14.50;99.90;;;;;;4810048;29;20541;-88
2022/10/21 08:55:38;;;;;;;10.75;6.10;;;14.70;99.90;;;;;;4834957;29;20265;-88
2022/10/21 08:58:10;;;;;;;7.65;5.88;;;14.80;99.90;;;;;;4810847;29;20198;-87
2022/10/21 09:00:53;;;;;;;9.27;5.93;;;14.90;99.90;;;;;;4809285;29;20185;-86
2022/10/21 09:04:10;;;;;;;15.18;6.03;;;15.00;99.90;;;;;;4819014;29;20510;-86
2022/10/21 09:06:51;;;;;;;12.38;5.72;;;15.00;99.90;;;;;;4789883;29;20197;-87
2022/10/21 09:09:28;;;;;;;12.25;5.50;;;15.10;99.90;;;;;;4809329;29;20266;-88
2022/10/21 09:12:02;;;;;;;26.50;6.47;;;15.20;99.90;;;;;;4819443;29;20602;-86
2022/10/21 09:14:37;;;;;;;23.13;6.20;;;15.20;99.90;;;;;;4823866;29;20190;-86
2022/10/21 09:17:30;;;;;;;8.40;4.97;;;15.20;99.90;;;;;;4799543;29;20287;-86
2022/10/21 09:20:02;;;;;;;11.02;5.28;;;15.30;99.90;;;;;;4787837;29;20179;-87
2022/10/21 09:22:44;;;;;;;12.95;5.35;;;15.40;99.90;;;;;;4800204;29;20529;-86
2022/10/21 09:25:15;;;;;;;13.48;5.40;;;15.40;99.90;;;;;;4824095;29;20178;-86
2022/10/21 09:27:41;;;;;;;10.73;5.72;;;15.50;99.90;;;;;;4813213;29;20202;-86
2022/10/21 09:30:11;;;;;;;9.02;4.88;;;15.60;99.90;;;;;;4812501;29;20650;-85
2022/10/21 09:32:40;;;;;;;7.53;5.03;;;15.60;99.90;;;;;;4814916;29;20542;-86
2022/10/21 09:35:24;;;;;;;11.85;5.45;;;15.70;99.90;;;;;;4806510;29;20179;-87
2022/10/21 09:38:01;;;;;;;9.93;5.50;;;15.70;99.90;;;;;;4807055;29;20190;-86
2022/10/21 09:40:29;;;;;;;9.93;5.55;;;15.80;99.90;;;;;;4813879;29;20192;-86
2022/10/21 09:42:58;;;;;;;15.95;5.75;;;15.90;99.90;;;;;;4808126;29;20190;-88
2022/10/21 09:45:38;;;;;;;7.07;4.85;;;15.90;99.90;;;;;;4812907;29;20187;-85
2022/10/21 09:48:16;;;;;;;9.45;5.25;;;15.90;99.90;;;;;;4810389;29;20186;-87
2022/10/21 09:50:55;;;;;;;8.38;5.00;;;15.90;99.90;;;;;;4811775;29;20693;-86
2022/10/21 09:53:40;;;;;;;10.20;5.40;;;15.90;99.90;;;;;;4816513;29;20214;-86
2022/10/21 09:56:16;;;;;;;12.77;5.38;;;16.00;99.90;;;;;;4811924;29;20186;-87
2022/10/21 09:58:42;;;;;;;11.32;5.05;;;15.90;99.90;;;;;;4822217;29;20244;-85
2022/10/21 10:01:13;;;;;;;9.30;5.47;;;15.90;99.90;;;;;;4816818;29;20254;-86
2022/10/21 10:03:47;;;;;;;8.10;5.18;;;15.90;99.90;;;;;;4817544;29;20524;-87
2022/10/21 10:06:34;;;;;;;8.52;4.88;;;16.00;99.90;;;;;;4805895;29;20190;-88
2022/10/21 10:09:07;;;;;;;8.07;5.07;;;16.10;99.90;;;;;;4806001;29;20190;-84
2022/10/21 10:11:46;;;;;;;7.35;4.75;;;16.40;99.90;;;;;;4802076;29;20195;-86
2022/10/21 10:14:37;;;;;;;9.65;5.00;;;16.50;99.90;;;;;;4796235;29;20194;-85
2022/10/21 10:17:31;;;;;;;11.98;4.75;;;16.60;99.90;;;;;;4796841;29;20238;-85
2022/10/21 10:20:02;;;;;;;6.47;3.67;;;16.80;99.90;;;;;;4788151;30;20271;-84
2022/10/21 10:22:29;;;;;;;5.85;3.83;;;16.90;99.90;;;;;;4798628;29;20653;-85
2022/10/21 10:25:25;;;;;;;6.75;3.80;;;17.00;99.90;;;;;;4805735;29;20195;-86
2022/10/21 10:27:52;;;;;;;6.88;3.45;;;17.00;99.90;;;;;;4805704;29;20218;-85
2022/10/21 10:30:19;;;;;;;8.57;3.60;;;17.00;99.90;;;;;;4809946;29;20242;-87
2022/10/21 10:32:46;;;;;;;4.63;3.38;;;17.00;99.90;;;;;;4813184;29;20195;-84
2022/10/21 10:35:30;;;;;;;7.80;3.67;;;17.00;99.90;;;;;;4802556;29;20536;-87
2022/10/21 10:37:58;;;;;;;8.98;3.40;;;16.90;99.90;;;;;;4805006;29;20194;-85
2022/10/21 10:40:40;;;;;;;8.90;3.15;;;16.90;99.90;;;;;;4809552;29;20183;-86
2022/10/21 10:43:27;;;;;;;7.55;3.20;;;16.80;99.90;;;;;;4807083;29;20214;-84
2022/10/21 10:45:58;;;;;;;6.88;3.00;;;16.80;99.90;;;;;;4810482;29;20171;-85
2022/10/21 10:48:35;;;;;;;7.45;3.38;;;16.80;99.90;;;;;;4791397;29;20522;-84
2022/10/21 10:51:06;;;;;;;9.00;3.95;;;16.70;99.90;;;;;;4795972;29;20222;-84
2022/10/21 10:53:36;;;;;;;9.75;3.17;;;16.70;99.90;;;;;;4808522;29;20935;-84
2022/10/21 10:56:11;;;;;;;6.90;3.13;;;16.80;99.90;;;;;;4822645;29;20488;-84
2022/10/21 10:58:58;;;;;;;6.85;3.30;;;16.80;99.90;;;;;;4792094;30;20191;-84
2022/10/21 11:01:32;;;;;;;11.68;3.35;;;16.70;99.90;;;;;;4792941;29;20518;-84
2022/10/21 11:04:10;;;;;;;6.60;3.40;;;16.70;99.90;;;;;;4808308;29;20193;-83
2022/10/21 11:06:49;;;;;;;7.53;3.17;;;16.70;99.90;;;;;;4808659;29;20654;-83
2022/10/21 11:09:18;;;;;;;7.07;4.00;;;16.70;99.90;;;;;;4808136;29;20210;-84
2022/10/21 11:11:46;;;;;;;6.95;3.38;;;16.60;99.90;;;;;;4806508;29;20225;-83
2022/10/21 11:14:17;;;;;;;4.15;3.03;;;16.70;99.90;;;;;;4807836;29;20186;-82
2022/10/21 11:17:08;;;;;;;4.82;2.95;;;16.60;99.90;;;;;;4807318;29;20694;-82
2022/10/21 11:19:52;;;;;;;7.80;3.00;;;16.60;99.90;;;;;;4806829;29;20181;-82
2022/10/21 11:22:36;;;;;;;5.78;3.28;;;16.60;99.90;;;;;;4807201;29;20199;-83
2022/10/21 11:25:11;;;;;;;9.95;3.58;;;16.50;99.90;;;;;;4808015;29;20186;-82
2022/10/21 11:28:13;;;;;;;9.32;3.90;;;16.50;99.90;;;;;;4807365;29;20202;-83
2022/10/21 11:30:54;;;;;;;9.55;3.90;;;16.50;99.90;;;;;;4807566;29;20247;-83
2022/10/21 11:33:43;;;;;;;10.30;3.67;;;16.50;99.90;;;;;;4807551;29;20205;-83
2022/10/21 11:36:39;;;;;;;13.00;3.50;;;16.50;99.90;;;;;;4806542;29;20199;-82
2022/10/21 11:39:23;;;;;;;8.82;3.60;;;16.40;99.90;;;;;;4790897;30;20167;-83
2022/10/21 11:42:26;;;;;;;5.75;3.45;;;16.40;99.90;;;;;;4802380;29;20699;-83
2022/10/21 11:45:07;;;;;;;5.97;3.58;;;16.40;99.90;;;;;;4815415;29;20284;-82
2022/10/21 11:47:50;;;;;;;4.22;3.15;;;16.40;99.90;;;;;;4824119;29;20281;-83
2022/10/21 11:50:48;;;;;;;6.88;3.40;;;16.40;99.90;;;;;;4824469;29;20214;-82
2022/10/21 11:53:42;;;;;;;6.82;3.28;;;16.30;99.90;;;;;;4807446;29;20659;-83
2022/10/21 11:56:26;;;;;;;8.93;3.58;;;16.30;99.90;;;;;;4788850;30;20218;-83
2022/10/21 11:59:12;;;;;;;8.88;3.53;;;16.40;99.90;;;;;;4825352;29;20535;-84
2022/10/21 12:02:07;;;;;;;9.68;3.60;;;16.30;99.90;;;;;;4812265;29;20252;-83
2022/10/21 12:05:02;;;;;;;9.68;3.38;;;16.30;99.90;;;;;;4807783;29;20251;-83
2022/10/21 12:07:36;;;;;;;5.82;3.75;;;16.30;99.90;;;;;;4808186;29;20236;-83
2022/10/21 12:10:10;;;;;;;6.32;3.40;;;16.20;99.90;;;;;;4806580;29;20225;-84
2022/10/21 12:12:39;;;;;;;7.03;3.72;;;16.20;99.90;;;;;;4806708;29;20216;-85
2022/10/21 12:15:19;;;;;;;5.15;3.47;;;16.20;99.90;;;;;;4807630;29;20195;-83
2022/10/21 12:17:48;;;;;;;8.38;3.40;;;16.20;99.90;;;;;;4822441;29;20286;-84
2022/10/21 12:20:19;;;;;;;7.95;3.95;;;16.20;99.90;;;;;;4826627;29;20265;-84
2022/10/21 12:22:46;;;;;;;7.45;3.90;;;16.10;99.90;;;;;;4825121;29;20357;-82
2022/10/21 12:25:13;;;;;;;10.18;4.07;;;16.10;99.90;;;;;;4826732;29;20186;-84
2022/10/21 12:27:51;;;;;;;7.88;3.65;;;16.10;99.90;;;;;;4808955;29;20222;-84
2022/10/21 12:30:38;;;;;;;6.93;3.33;;;16.10;99.90;;;;;;4809897;29;20214;-84
2022/10/21 12:33:28;;;;;;;7.65;3.38;;;16.00;99.90;;;;;;4825234;29;20217;-84
2022/10/21 12:36:40;;;;;;;9.82;3.35;;;16.00;99.90;;;;;;4826738;29;20560;-84
2022/10/21 12:39:17;;;;;;;6.20;3.30;;;16.00;99.90;;;;;;4790015;29;20213;-84
2022/10/21 12:41:47;;;;;;;11.52;3.53;;;16.00;99.90;;;;;;4808442;29;20885;-84
2022/10/21 12:44:27;;;;;;;7.03;3.50;;;15.90;99.90;;;;;;4809368;29;20198;-85
2022/10/21 12:47:01;;;;;;;9.27;3.55;;;15.90;99.90;;;;;;4824964;29;20190;-84
2022/10/21 12:49:35;;;;;;;9.00;3.80;;;15.80;99.90;;;;;;4809832;29;20209;-85
2022/10/21 12:52:21;;;;;;;7.80;3.85;;;15.80;99.90;;;;;;4808285;29;20277;-84
2022/10/21 12:55:02;;;;;;;5.90;3.50;;;15.80;99.90;;;;;;4809279;29;20606;-84
2022/10/21 12:57:33;;;;;;;7.05;3.88;;;15.80;99.90;;;;;;4806586;29;20193;-84
2022/10/21 13:00:26;;;;;;;6.70;3.60;;;15.90;99.90;;;;;;4825316;29;20198;-86
2022/10/21 13:02:55;;;;;;;6.65;3.60;;;15.90;99.90;;;;;;4809730;29;20641;-86
2022/10/21 13:05:39;;;;;;;5.40;3.45;;;15.90;99.90;;;;;;4809611;29;20224;-85
2022/10/21 13:08:26;;;;;;;9.95;4.13;;;15.90;99.90;;;;;;4817819;29;20193;-86
2022/10/21 13:11:04;;;;;;;7.63;3.63;;;15.90;99.90;;;;;;4809121;29;20256;-85
2022/10/21 13:13:37;;;;;;;9.38;3.60;;;15.90;99.90;;;;;;4809901;29;20185;-85